createdAt,value
2023-04-16T00:02:09.867Z,39.6
2023-04-16T00:08:15.254Z,39.6
2023-04-16T00:14:20.368Z,39.6
2023-04-16T00:20:25.767Z,39.7
2023-04-16T00:26:31.720Z,39.7
2023-04-16T00:32:37.165Z,39.7
2023-04-16T00:38:42.846Z,39.7
2023-04-16T00:44:48.077Z,39.8
2023-04-16T00:50:53.614Z,39.8
2023-04-16T00:56:59.181Z,39.8
2023-04-16T01:03:04.828Z,39.8
2023-04-16T01:09:10.866Z,39.8
2023-04-16T01:15:16.501Z,39.8
2023-04-16T01:21:22.116Z,39.8
2023-04-16T01:27:27.715Z,39.9
2023-04-16T01:33:33.302Z,39.9
2023-04-16T01:39:38.586Z,39.9
2023-04-16T01:45:44.644Z,39.9
2023-04-16T01:51:50.019Z,39.9
2023-04-16T01:57:55.565Z,40
2023-04-16T02:04:01.501Z,40
2023-04-16T02:10:06.833Z,40
2023-04-16T02:16:12.652Z,40
2023-04-16T02:22:17.635Z,40
2023-04-16T02:28:23.012Z,40
2023-04-16T02:34:28.398Z,40
2023-04-16T02:40:34.132Z,40
2023-04-16T02:46:39.895Z,40.1
2023-04-16T02:52:45.265Z,40
2023-04-16T02:58:50.827Z,40.1
2023-04-16T03:04:56.092Z,40.1
2023-04-16T03:11:01.601Z,40.1
2023-04-16T03:17:07.345Z,40.2
2023-04-16T03:23:12.913Z,40.2
2023-04-16T03:29:18.371Z,40.2
2023-04-16T03:35:24.269Z,40.2
2023-04-16T03:41:29.429Z,40.2
2023-04-16T03:47:34.807Z,40.2
2023-04-16T03:53:40.370Z,40.2
2023-04-16T03:59:46.159Z,40.3
2023-04-16T04:05:51.510Z,40.3
2023-04-16T04:11:57.291Z,40.3
2023-04-16T04:18:02.760Z,40.3
2023-04-16T04:24:08.228Z,40.4
2023-04-16T04:30:13.802Z,40.4
2023-04-16T04:36:19.451Z,40.4
2023-04-16T04:42:25.363Z,40.4
2023-04-16T04:48:30.937Z,40.4
2023-04-16T04:54:36.716Z,40.5
2023-04-16T05:00:42.076Z,40.5
2023-04-16T05:06:47.340Z,40.5
2023-04-16T05:12:52.815Z,40.5
2023-04-16T05:18:58.368Z,40.5
2023-04-16T05:25:04.047Z,40.5
2023-04-16T05:31:09.387Z,40.5
2023-04-16T05:37:14.703Z,40.5
2023-04-16T05:43:20.275Z,40.4
2023-04-16T05:49:26.057Z,40.4
2023-04-16T05:55:31.396Z,40.2
2023-04-16T06:01:37.586Z,39.9
2023-04-16T06:07:42.763Z,39.4
2023-04-16T06:13:48.119Z,39.2
2023-04-16T06:19:53.299Z,39.1
2023-04-16T06:25:58.878Z,39
2023-04-16T06:32:04.445Z,38.9
2023-04-16T06:38:10.203Z,39
2023-04-16T06:44:15.994Z,39
2023-04-16T06:50:21.353Z,39
2023-04-16T06:56:26.928Z,39.1
2023-04-16T07:02:33.196Z,39.1
2023-04-16T07:08:38.693Z,39.2
2023-04-16T07:14:44.060Z,39.2
2023-04-16T07:20:49.862Z,39.2
2023-04-16T07:26:55.610Z,39.3
2023-04-16T07:33:01.422Z,39.3
2023-04-16T07:39:06.768Z,39.4
2023-04-16T07:45:12.325Z,39.4
2023-04-16T07:51:17.899Z,39.4
2023-04-16T07:57:23.680Z,39.4
2023-04-16T08:03:29.781Z,39.5
2023-04-16T08:09:35.628Z,39.5
2023-04-16T08:15:41.448Z,39.5
2023-04-16T08:21:46.811Z,39.4
2023-04-16T08:27:52.159Z,39.3
2023-04-16T08:33:57.531Z,39.3
2023-04-16T08:40:03.115Z,39.2
2023-04-16T08:46:08.901Z,39.2
2023-04-16T08:52:14.081Z,39.1
2023-04-16T08:58:19.836Z,39.1
2023-04-16T09:04:25.456Z,39.1
2023-04-16T09:10:31.595Z,39
2023-04-16T09:16:37.388Z,39.1
2023-04-16T09:22:42.763Z,39.1
2023-04-16T09:28:47.537Z,39
2023-04-16T09:34:53.048Z,38.9
2023-04-16T09:40:58.415Z,39.2
2023-04-16T09:47:04.193Z,39.1
2023-04-16T09:53:09.764Z,39.1
2023-04-16T09:59:15.328Z,39.2
2023-04-16T10:05:20.339Z,39.2
2023-04-16T10:11:25.858Z,39
2023-04-16T10:17:31.687Z,39
2023-04-16T10:23:37.072Z,39.2
2023-04-16T10:29:42.236Z,39.2
2023-04-16T10:35:54.952Z,39.3
2023-04-16T10:42:03.606Z,39.1
2023-04-16T10:48:08.993Z,39.3
2023-04-16T10:54:14.344Z,39.3
2023-04-16T11:00:19.854Z,39.3
2023-04-16T11:06:25.077Z,39.2
2023-04-16T11:12:30.864Z,39
2023-04-16T11:18:36.858Z,39
2023-04-16T11:24:48.354Z,39.1
2023-04-16T11:30:53.530Z,39.1
2023-04-16T11:36:58.701Z,39.2
2023-04-16T11:43:04.069Z,39.3
2023-04-16T11:49:09.525Z,39.3
2023-04-16T11:55:15.331Z,39.2
2023-04-16T12:01:20.913Z,39.3
2023-04-16T12:07:26.342Z,39.3
2023-04-16T12:13:31.661Z,39.3
2023-04-16T12:19:36.458Z,39.3
2023-04-16T12:25:41.772Z,39.3
2023-04-16T12:31:47.764Z,39.3
2023-04-16T12:37:53.328Z,39.4
2023-04-16T12:43:58.915Z,39.3
2023-04-16T12:50:04.881Z,39.3
2023-04-16T12:56:10.243Z,39.3
2023-04-16T13:02:15.757Z,39.3
2023-04-16T13:08:21.435Z,39.3
2023-04-16T13:14:26.549Z,39.3
2023-04-16T13:20:31.787Z,39.2
2023-04-16T13:26:37.355Z,39.2
2023-04-16T13:32:42.154Z,39.3
2023-04-16T13:38:47.610Z,39.2
2023-04-16T13:44:53.393Z,39.1
2023-04-16T13:50:58.560Z,39
2023-04-16T13:57:04.335Z,39.1
2023-04-16T14:03:10.305Z,39.1
2023-04-16T14:09:16.495Z,39.1
2023-04-16T14:15:21.511Z,39.1
2023-04-16T14:21:26.513Z,39.2
2023-04-16T14:27:31.990Z,39.3
2023-04-16T14:33:37.147Z,39.3
2023-04-16T14:39:42.132Z,39.2
2023-04-16T14:45:47.761Z,39.3
2023-04-16T14:51:52.689Z,39.3
2023-04-16T14:57:58.689Z,39.2
2023-04-16T15:04:05.291Z,39.3
2023-04-16T15:10:10.850Z,39.3
2023-04-16T15:16:16.669Z,39.3
2023-04-16T15:22:21.795Z,39.3
2023-04-16T15:28:26.961Z,39.2
2023-04-16T15:34:32.258Z,39.2
2023-04-16T15:40:37.859Z,39.3
2023-04-16T15:46:43.533Z,39.3
2023-04-16T15:52:49.056Z,39.3
2023-04-16T15:58:54.419Z,39.4
2023-04-16T16:04:59.997Z,39.3
2023-04-16T16:11:05.287Z,39.4
2023-04-16T16:17:10.666Z,39.4
2023-04-16T16:23:15.903Z,39.3
2023-04-16T16:29:21.052Z,39.3
2023-04-16T16:35:26.414Z,39.3
2023-04-16T16:41:31.698Z,39.4
2023-04-16T16:47:37.157Z,39.4
2023-04-16T16:53:41.908Z,39.4
2023-04-16T16:59:47.473Z,39.5
2023-04-16T17:05:53.070Z,39.5
2023-04-16T17:11:58.429Z,39.4
2023-04-16T17:18:03.616Z,39.6
2023-04-16T17:24:08.640Z,39.5
2023-04-16T17:30:14.252Z,39.5
2023-04-16T17:36:19.475Z,39.6
2023-04-16T17:42:25.086Z,39.6
2023-04-16T17:48:30.659Z,39.6
2023-04-16T17:54:36.069Z,39.6
2023-04-16T18:00:41.383Z,39.6
2023-04-16T18:06:46.735Z,39.7
2023-04-16T18:12:52.040Z,39.7
2023-04-16T18:18:57.905Z,39.8
2023-04-16T18:25:03.056Z,39.7
2023-04-16T18:31:09.241Z,39.8
2023-04-16T18:37:14.812Z,39.7
2023-04-16T18:43:20.778Z,39.8
2023-04-16T18:49:25.938Z,39.8
2023-04-16T18:55:31.723Z,39.8
2023-04-16T19:01:37.075Z,39.8
2023-04-16T19:07:42.377Z,39.8
2023-04-16T19:13:47.767Z,39.8
2023-04-16T19:19:53.332Z,39.8
2023-04-16T19:25:58.934Z,39.8
2023-04-16T19:32:04.801Z,39.8
2023-04-16T19:38:12.822Z,39.9
2023-04-16T19:44:18.357Z,39.9
2023-04-16T19:50:23.931Z,39.9
2023-04-16T19:56:29.509Z,39.9
2023-04-16T20:02:34.969Z,39.9
2023-04-16T20:08:40.865Z,39.9
2023-04-16T20:14:46.426Z,40
2023-04-16T20:20:51.534Z,39.9
2023-04-16T20:26:57.095Z,39.9
2023-04-16T20:33:02.542Z,39.9
2023-04-16T20:39:08.098Z,40
2023-04-16T20:45:14.226Z,39.9
2023-04-16T20:51:19.578Z,39.9
2023-04-16T20:57:24.959Z,40
2023-04-16T21:03:30.935Z,40
2023-04-16T21:09:36.518Z,39.9
2023-04-16T21:15:42.088Z,40
2023-04-16T21:21:47.868Z,40
2023-04-16T21:27:53.852Z,39.9
2023-04-16T21:33:59.844Z,39.9
2023-04-16T21:40:05.407Z,40
2023-04-16T21:46:10.838Z,40
2023-04-16T21:52:15.372Z,40
2023-04-16T21:58:21.090Z,40.1
2023-04-16T22:04:26.689Z,40.1
2023-04-16T22:10:32.242Z,40
2023-04-16T22:16:37.867Z,40.2
2023-04-16T22:22:43.402Z,40.2
2023-04-16T22:28:48.764Z,40.2
2023-04-16T22:34:54.120Z,40.3
2023-04-16T22:40:59.905Z,40.3
2023-04-16T22:47:05.059Z,40.3
2023-04-16T22:53:10.830Z,40.3
2023-04-16T22:59:17.249Z,40.3
2023-04-16T23:05:22.236Z,40.4
2023-04-16T23:11:27.552Z,40.3
2023-04-16T23:17:33.357Z,40.4
2023-04-16T23:23:38.700Z,40.4
2023-04-16T23:29:44.278Z,40.4
2023-04-16T23:35:49.632Z,40.4
2023-04-16T23:41:55.226Z,40.4
2023-04-16T23:48:01.037Z,40.5
2023-04-16T23:54:06.357Z,40.5
